sensor_id;sensor_type;location;lat;lon;timestamp;P1;durP1;ratioP1;P2;durP2;ratioP2
24631;SDS011;59977;48.782;9.190;2023-11-25T00:00:42;5.78;;;1.40;;
24631;SDS011;59977;48.782;9.190;2023-11-25T00:03:08;6.97;;;1.73;;
24631;SDS011;59977;48.782;9.190;2023-11-25T00:05:34;6.65;;;1.40;;
24631;SDS011;59977;48.782;9.190;2023-11-25T00:08:00;8.50;;;1.80;;
24631;SDS011;59977;48.782;9.190;2023-11-25T00:10:25;9.95;;;1.55;;
24631;SDS011;59977;48.782;9.190;2023-11-25T00:12:51;5.70;;;1.33;;
24631;SDS011;59977;48.782;9.190;2023-11-25T00:15:16;8.52;;;1.65;;
24631;SDS011;59977;48.782;9.190;2023-11-25T00:17:42;7.38;;;1.55;;
24631;SDS011;59977;48.782;9.190;2023-11-25T00:20:08;10.35;;;1.60;;
24631;SDS011;59977;48.782;9.190;2023-11-25T00:22:34;4.53;;;1.20;;
24631;SDS011;59977;48.782;9.190;2023-11-25T00:25:00;5.25;;;1.70;;
24631;SDS011;59977;48.782;9.190;2023-11-25T00:27:26;9.98;;;1.75;;
24631;SDS011;59977;48.782;9.190;2023-11-25T00:29:52;6.47;;;1.33;;
24631;SDS011;59977;48.782;9.190;2023-11-25T00:32:18;8.27;;;1.73;;
24631;SDS011;59977;48.782;9.190;2023-11-25T00:34:45;8.48;;;1.65;;
24631;SDS011;59977;48.782;9.190;2023-11-25T00:37:11;7.18;;;1.55;;
24631;SDS011;59977;48.782;9.190;2023-11-25T00:39:37;7.97;;;1.60;;
24631;SDS011;59977;48.782;9.190;2023-11-25T00:42:03;9.70;;;1.60;;
24631;SDS011;59977;48.782;9.190;2023-11-25T00:44:29;7.53;;;1.65;;
24631;SDS011;59977;48.782;9.190;2023-11-25T00:46:55;8.10;;;1.40;;
24631;SDS011;59977;48.782;9.190;2023-11-25T00:49:20;7.13;;;1.52;;
24631;SDS011;59977;48.782;9.190;2023-11-25T00:51:46;10.05;;;1.40;;
24631;SDS011;59977;48.782;9.190;2023-11-25T00:54:12;4.82;;;1.10;;
24631;SDS011;59977;48.782;9.190;2023-11-25T00:56:37;12.50;;;1.63;;
24631;SDS011;59977;48.782;9.190;2023-11-25T00:59:03;6.30;;;1.20;;
24631;SDS011;59977;48.782;9.190;2023-11-25T01:01:28;6.43;;;1.20;;
24631;SDS011;59977;48.782;9.190;2023-11-25T01:03:54;9.13;;;1.60;;
24631;SDS011;59977;48.782;9.190;2023-11-25T01:06:20;5.57;;;1.38;;
24631;SDS011;59977;48.782;9.190;2023-11-25T01:08:45;6.00;;;1.40;;
24631;SDS011;59977;48.782;9.190;2023-11-25T01:11:11;6.68;;;1.63;;
24631;SDS011;59977;48.782;9.190;2023-11-25T01:13:37;8.73;;;1.17;;
24631;SDS011;59977;48.782;9.190;2023-11-25T01:16:03;6.22;;;1.20;;
24631;SDS011;59977;48.782;9.190;2023-11-25T01:18:29;14.65;;;1.45;;
24631;SDS011;59977;48.782;9.190;2023-11-25T01:20:55;11.98;;;2.22;;
24631;SDS011;59977;48.782;9.190;2023-11-25T01:23:21;10.77;;;1.20;;
24631;SDS011;59977;48.782;9.190;2023-11-25T01:25:47;10.57;;;1.42;;
24631;SDS011;59977;48.782;9.190;2023-11-25T01:28:14;6.05;;;1.15;;
24631;SDS011;59977;48.782;9.190;2023-11-25T01:30:39;8.00;;;1.65;;
24631;SDS011;59977;48.782;9.190;2023-11-25T01:33:05;7.95;;;1.20;;
24631;SDS011;59977;48.782;9.190;2023-11-25T01:35:32;5.65;;;1.40;;
24631;SDS011;59977;48.782;9.190;2023-11-25T01:37:58;6.85;;;1.15;;
24631;SDS011;59977;48.782;9.190;2023-11-25T01:40:24;7.35;;;2.03;;
24631;SDS011;59977;48.782;9.190;2023-11-25T01:42:50;2.95;;;1.00;;
24631;SDS011;59977;48.782;9.190;2023-11-25T01:45:20;1.63;;;0.60;;
24631;SDS011;59977;48.782;9.190;2023-11-25T01:47:46;8.50;;;1.65;;
24631;SDS011;59977;48.782;9.190;2023-11-25T01:50:12;8.40;;;1.42;;
24631;SDS011;59977;48.782;9.190;2023-11-25T01:52:37;9.85;;;1.63;;
24631;SDS011;59977;48.782;9.190;2023-11-25T01:55:04;6.47;;;1.20;;
24631;SDS011;59977;48.782;9.190;2023-11-25T01:57:33;7.25;;;1.30;;
24631;SDS011;59977;48.782;9.190;2023-11-25T01:59:59;5.32;;;1.20;;
24631;SDS011;59977;48.782;9.190;2023-11-25T02:02:30;6.60;;;1.50;;
24631;SDS011;59977;48.782;9.190;2023-11-25T02:04:57;8.35;;;1.52;;
24631;SDS011;59977;48.782;9.190;2023-11-25T02:07:23;15.63;;;1.73;;
24631;SDS011;59977;48.782;9.190;2023-11-25T02:09:48;7.00;;;1.35;;
24631;SDS011;59977;48.782;9.190;2023-11-25T02:12:14;6.82;;;1.60;;
24631;SDS011;59977;48.782;9.190;2023-11-25T02:14:40;4.72;;;1.30;;
24631;SDS011;59977;48.782;9.190;2023-11-25T02:17:06;4.93;;;1.13;;
24631;SDS011;59977;48.782;9.190;2023-11-25T02:19:32;10.10;;;2.33;;
24631;SDS011;59977;48.782;9.190;2023-11-25T02:21:58;6.82;;;1.48;;
24631;SDS011;59977;48.782;9.190;2023-11-25T02:24:24;4.22;;;1.20;;
24631;SDS011;59977;48.782;9.190;2023-11-25T02:26:58;8.52;;;1.60;;
24631;SDS011;59977;48.782;9.190;2023-11-25T02:29:25;9.55;;;1.27;;
24631;SDS011;59977;48.782;9.190;2023-11-25T02:31:51;9.32;;;1.90;;
24631;SDS011;59977;48.782;9.190;2023-11-25T02:34:17;5.68;;;1.52;;
24631;SDS011;59977;48.782;9.190;2023-11-25T02:36:42;8.82;;;1.88;;
24631;SDS011;59977;48.782;9.190;2023-11-25T02:39:09;7.35;;;1.73;;
24631;SDS011;59977;48.782;9.190;2023-11-25T02:41:35;6.15;;;1.30;;
24631;SDS011;59977;48.782;9.190;2023-11-25T02:44:01;5.43;;;1.40;;
24631;SDS011;59977;48.782;9.190;2023-11-25T02:46:27;6.93;;;1.30;;
24631;SDS011;59977;48.782;9.190;2023-11-25T02:48:53;5.78;;;1.33;;
24631;SDS011;59977;48.782;9.190;2023-11-25T02:51:19;7.22;;;1.45;;
24631;SDS011;59977;48.782;9.190;2023-11-25T02:53:45;7.38;;;1.35;;
24631;SDS011;59977;48.782;9.190;2023-11-25T02:56:11;10.07;;;1.60;;
24631;SDS011;59977;48.782;9.190;2023-11-25T02:58:36;7.05;;;1.80;;
24631;SDS011;59977;48.782;9.190;2023-11-25T03:01:02;11.73;;;1.63;;
24631;SDS011;59977;48.782;9.190;2023-11-25T03:03:32;4.95;;;1.52;;
24631;SDS011;59977;48.782;9.190;2023-11-25T03:06:01;11.48;;;1.80;;
24631;SDS011;59977;48.782;9.190;2023-11-25T03:08:28;10.13;;;1.80;;
24631;SDS011;59977;48.782;9.190;2023-11-25T03:10:54;7.97;;;1.77;;
24631;SDS011;59977;48.782;9.190;2023-11-25T03:13:21;8.52;;;1.70;;
24631;SDS011;59977;48.782;9.190;2023-11-25T03:15:46;10.73;;;1.80;;
24631;SDS011;59977;48.782;9.190;2023-11-25T03:18:12;7.78;;;1.70;;
24631;SDS011;59977;48.782;9.190;2023-11-25T03:20:38;8.27;;;1.90;;
24631;SDS011;59977;48.782;9.190;2023-11-25T03:23:04;7.22;;;1.50;;
24631;SDS011;59977;48.782;9.190;2023-11-25T03:25:31;12.23;;;1.50;;
24631;SDS011;59977;48.782;9.190;2023-11-25T03:27:58;5.95;;;1.65;;
24631;SDS011;59977;48.782;9.190;2023-11-25T03:30:29;10.53;;;2.10;;
24631;SDS011;59977;48.782;9.190;2023-11-25T03:32:55;10.52;;;1.77;;
24631;SDS011;59977;48.782;9.190;2023-11-25T03:35:21;7.78;;;1.73;;
24631;SDS011;59977;48.782;9.190;2023-11-25T03:37:47;8.05;;;1.50;;
24631;SDS011;59977;48.782;9.190;2023-11-25T03:40:13;9.88;;;1.60;;
24631;SDS011;59977;48.782;9.190;2023-11-25T03:42:41;9.20;;;2.15;;
24631;SDS011;59977;48.782;9.190;2023-11-25T03:45:08;8.90;;;1.55;;
24631;SDS011;59977;48.782;9.190;2023-11-25T03:47:34;9.80;;;1.63;;
24631;SDS011;59977;48.782;9.190;2023-11-25T03:49:59;9.65;;;1.65;;
24631;SDS011;59977;48.782;9.190;2023-11-25T03:52:25;7.95;;;1.63;;
24631;SDS011;59977;48.782;9.190;2023-11-25T03:54:50;10.02;;;1.83;;
24631;SDS011;59977;48.782;9.190;2023-11-25T03:57:16;13.02;;;2.13;;
24631;SDS011;59977;48.782;9.190;2023-11-25T03:59:42;8.27;;;1.67;;
24631;SDS011;59977;48.782;9.190;2023-11-25T04:02:08;6.63;;;1.55;;
24631;SDS011;59977;48.782;9.190;2023-11-25T04:04:33;10.13;;;1.90;;
24631;SDS011;59977;48.782;9.190;2023-11-25T04:06:59;8.23;;;1.70;;
24631;SDS011;59977;48.782;9.190;2023-11-25T04:09:25;6.85;;;1.67;;
24631;SDS011;59977;48.782;9.190;2023-11-25T04:11:51;9.38;;;1.98;;
24631;SDS011;59977;48.782;9.190;2023-11-25T04:14:17;8.32;;;1.60;;
24631;SDS011;59977;48.782;9.190;2023-11-25T04:16:43;11.02;;;1.88;;
24631;SDS011;59977;48.782;9.190;2023-11-25T04:19:08;8.15;;;1.60;;
24631;SDS011;59977;48.782;9.190;2023-11-25T04:21:35;7.55;;;1.70;;
24631;SDS011;59977;48.782;9.190;2023-11-25T04:24:05;8.68;;;1.52;;
24631;SDS011;59977;48.782;9.190;2023-11-25T04:26:33;8.45;;;1.42;;
24631;SDS011;59977;48.782;9.190;2023-11-25T04:29:01;5.95;;;1.70;;
24631;SDS011;59977;48.782;9.190;2023-11-25T04:31:27;9.98;;;1.60;;
24631;SDS011;59977;48.782;9.190;2023-11-25T04:33:52;12.48;;;2.13;;
24631;SDS011;59977;48.782;9.190;2023-11-25T04:36:18;9.38;;;1.80;;
24631;SDS011;59977;48.782;9.190;2023-11-25T04:38:44;8.77;;;1.52;;
24631;SDS011;59977;48.782;9.190;2023-11-25T04:41:09;10.68;;;1.55;;
24631;SDS011;59977;48.782;9.190;2023-11-25T04:43:35;11.55;;;1.80;;
24631;SDS011;59977;48.782;9.190;2023-11-25T04:46:01;6.85;;;1.40;;
24631;SDS011;59977;48.782;9.190;2023-11-25T04:48:29;6.47;;;1.95;;
24631;SDS011;59977;48.782;9.190;2023-11-25T04:50:55;10.35;;;1.50;;
24631;SDS011;59977;48.782;9.190;2023-11-25T04:53:21;11.02;;;1.92;;
24631;SDS011;59977;48.782;9.190;2023-11-25T04:55:46;10.23;;;1.73;;
24631;SDS011;59977;48.782;9.190;2023-11-25T04:58:13;10.27;;;1.50;;
24631;SDS011;59977;48.782;9.190;2023-11-25T05:00:39;6.75;;;1.85;;
24631;SDS011;59977;48.782;9.190;2023-11-25T05:03:05;8.98;;;1.83;;
24631;SDS011;59977;48.782;9.190;2023-11-25T05:05:30;6.75;;;1.48;;
24631;SDS011;59977;48.782;9.190;2023-11-25T05:07:57;10.05;;;1.45;;
24631;SDS011;59977;48.782;9.190;2023-11-25T05:10:23;5.97;;;1.40;;
24631;SDS011;59977;48.782;9.190;2023-11-25T05:12:49;5.30;;;1.27;;
24631;SDS011;59977;48.782;9.190;2023-11-25T05:15:15;11.25;;;1.45;;
24631;SDS011;59977;48.782;9.190;2023-11-25T05:17:41;7.45;;;1.60;;
24631;SDS011;59977;48.782;9.190;2023-11-25T05:20:08;12.80;;;1.42;;
24631;SDS011;59977;48.782;9.190;2023-11-25T05:22:40;11.55;;;1.75;;
24631;SDS011;59977;48.782;9.190;2023-11-25T05:25:07;6.93;;;1.30;;
24631;SDS011;59977;48.782;9.190;2023-11-25T05:27:35;8.80;;;1.05;;
24631;SDS011;59977;48.782;9.190;2023-11-25T05:30:02;9.35;;;1.50;;
24631;SDS011;59977;48.782;9.190;2023-11-25T05:32:28;15.98;;;1.40;;
24631;SDS011;59977;48.782;9.190;2023-11-25T05:34:54;7.32;;;1.88;;
24631;SDS011;59977;48.782;9.190;2023-11-25T05:37:21;7.75;;;1.70;;
24631;SDS011;59977;48.782;9.190;2023-11-25T05:39:47;7.60;;;1.77;;
24631;SDS011;59977;48.782;9.190;2023-11-25T05:42:15;13.43;;;2.05;;
24631;SDS011;59977;48.782;9.190;2023-11-25T05:44:48;11.23;;;2.20;;
24631;SDS011;59977;48.782;9.190;2023-11-25T05:47:15;7.28;;;1.30;;
24631;SDS011;59977;48.782;9.190;2023-11-25T05:49:42;11.73;;;1.83;;
24631;SDS011;59977;48.782;9.190;2023-11-25T05:52:08;7.35;;;1.55;;
24631;SDS011;59977;48.782;9.190;2023-11-25T05:54:35;13.30;;;1.45;;
24631;SDS011;59977;48.782;9.190;2023-11-25T05:57:01;5.63;;;1.20;;
24631;SDS011;59977;48.782;9.190;2023-11-25T05:59:26;8.70;;;1.75;;
24631;SDS011;59977;48.782;9.190;2023-11-25T06:01:52;6.28;;;1.80;;
24631;SDS011;59977;48.782;9.190;2023-11-25T06:04:18;7.30;;;1.25;;
24631;SDS011;59977;48.782;9.190;2023-11-25T06:06:43;8.35;;;1.88;;
24631;SDS011;59977;48.782;9.190;2023-11-25T06:09:09;10.07;;;1.75;;
24631;SDS011;59977;48.782;9.190;2023-11-25T06:11:37;8.65;;;1.90;;
24631;SDS011;59977;48.782;9.190;2023-11-25T06:14:03;6.60;;;1.80;;
24631;SDS011;59977;48.782;9.190;2023-11-25T06:16:30;9.40;;;1.80;;
24631;SDS011;59977;48.782;9.190;2023-11-25T06:18:56;7.35;;;1.23;;
24631;SDS011;59977;48.782;9.190;2023-11-25T06:21:22;8.43;;;1.30;;
24631;SDS011;59977;48.782;9.190;2023-11-25T06:23:48;7.07;;;1.33;;
24631;SDS011;59977;48.782;9.190;2023-11-25T06:26:15;4.80;;;1.65;;
24631;SDS011;59977;48.782;9.190;2023-11-25T06:28:45;6.68;;;1.50;;
24631;SDS011;59977;48.782;9.190;2023-11-25T06:31:12;7.32;;;1.48;;
24631;SDS011;59977;48.782;9.190;2023-11-25T06:33:39;8.65;;;1.80;;
24631;SDS011;59977;48.782;9.190;2023-11-25T06:36:06;10.07;;;1.70;;
24631;SDS011;59977;48.782;9.190;2023-11-25T06:38:35;7.13;;;1.77;;
24631;SDS011;59977;48.782;9.190;2023-11-25T06:41:01;7.07;;;2.00;;
24631;SDS011;59977;48.782;9.190;2023-11-25T06:43:27;9.15;;;1.52;;
24631;SDS011;59977;48.782;9.190;2023-11-25T06:45:53;8.32;;;1.40;;
24631;SDS011;59977;48.782;9.190;2023-11-25T06:48:18;9.27;;;1.45;;
24631;SDS011;59977;48.782;9.190;2023-11-25T06:50:45;11.55;;;1.58;;
24631;SDS011;59977;48.782;9.190;2023-11-25T06:53:10;10.48;;;1.50;;
24631;SDS011;59977;48.782;9.190;2023-11-25T06:55:36;8.75;;;1.70;;
24631;SDS011;59977;48.782;9.190;2023-11-25T06:58:06;17.13;;;1.83;;
24631;SDS011;59977;48.782;9.190;2023-11-25T07:00:36;9.07;;;1.77;;
24631;SDS011;59977;48.782;9.190;2023-11-25T07:03:03;7.28;;;1.45;;
24631;SDS011;59977;48.782;9.190;2023-11-25T07:05:29;4.68;;;1.60;;
24631;SDS011;59977;48.782;9.190;2023-11-25T07:07:55;10.20;;;1.60;;
24631;SDS011;59977;48.782;9.190;2023-11-25T07:10:21;7.18;;;1.45;;
24631;SDS011;59977;48.782;9.190;2023-11-25T07:12:46;8.63;;;1.63;;
24631;SDS011;59977;48.782;9.190;2023-11-25T07:15:12;6.95;;;1.58;;
24631;SDS011;59977;48.782;9.190;2023-11-25T07:17:39;12.77;;;1.95;;
24631;SDS011;59977;48.782;9.190;2023-11-25T07:20:06;6.10;;;1.42;;
24631;SDS011;59977;48.782;9.190;2023-11-25T07:22:44;9.52;;;1.55;;
24631;SDS011;59977;48.782;9.190;2023-11-25T07:25:10;8.05;;;2.30;;
24631;SDS011;59977;48.782;9.190;2023-11-25T07:27:40;6.95;;;1.40;;
24631;SDS011;59977;48.782;9.190;2023-11-25T07:30:07;8.50;;;1.73;;
24631;SDS011;59977;48.782;9.190;2023-11-25T07:32:34;7.13;;;1.52;;
24631;SDS011;59977;48.782;9.190;2023-11-25T07:35:00;7.65;;;1.33;;
24631;SDS011;59977;48.782;9.190;2023-11-25T07:37:26;8.80;;;1.52;;
24631;SDS011;59977;48.782;9.190;2023-11-25T07:39:52;8.13;;;1.70;;
24631;SDS011;59977;48.782;9.190;2023-11-25T07:42:20;6.32;;;1.65;;
24631;SDS011;59977;48.782;9.190;2023-11-25T07:44:46;13.63;;;1.70;;
24631;SDS011;59977;48.782;9.190;2023-11-25T07:47:12;10.80;;;1.90;;
24631;SDS011;59977;48.782;9.190;2023-11-25T07:49:40;13.07;;;1.45;;
24631;SDS011;59977;48.782;9.190;2023-11-25T07:52:06;7.78;;;1.67;;
24631;SDS011;59977;48.782;9.190;2023-11-25T07:54:33;10.90;;;1.50;;
24631;SDS011;59977;48.782;9.190;2023-11-25T07:57:00;11.95;;;2.03;;
24631;SDS011;59977;48.782;9.190;2023-11-25T07:59:30;14.73;;;2.42;;
24631;SDS011;59977;48.782;9.190;2023-11-25T08:01:57;13.50;;;2.55;;
24631;SDS011;59977;48.782;9.190;2023-11-25T08:04:23;5.40;;;1.50;;
24631;SDS011;59977;48.782;9.190;2023-11-25T08:06:50;7.85;;;1.60;;
24631;SDS011;59977;48.782;9.190;2023-11-25T08:09:16;8.18;;;1.50;;
24631;SDS011;59977;48.782;9.190;2023-11-25T08:11:45;6.85;;;1.83;;
24631;SDS011;59977;48.782;9.190;2023-11-25T08:14:11;6.25;;;1.70;;
24631;SDS011;59977;48.782;9.190;2023-11-25T08:16:36;6.82;;;1.92;;
24631;SDS011;59977;48.782;9.190;2023-11-25T08:19:02;8.45;;;1.65;;
24631;SDS011;59977;48.782;9.190;2023-11-25T08:21:30;8.20;;;1.70;;
24631;SDS011;59977;48.782;9.190;2023-11-25T08:23:56;7.50;;;1.52;;
24631;SDS011;59977;48.782;9.190;2023-11-25T08:26:22;7.63;;;1.40;;
24631;SDS011;59977;48.782;9.190;2023-11-25T08:28:51;12.57;;;1.65;;
24631;SDS011;59977;48.782;9.190;2023-11-25T08:31:17;3.97;;;1.50;;
24631;SDS011;59977;48.782;9.190;2023-11-25T08:33:44;6.75;;;1.63;;
24631;SDS011;59977;48.782;9.190;2023-11-25T08:36:10;11.32;;;2.03;;
24631;SDS011;59977;48.782;9.190;2023-11-25T08:38:39;6.63;;;1.67;;
24631;SDS011;59977;48.782;9.190;2023-11-25T08:41:05;9.98;;;1.95;;
24631;SDS011;59977;48.782;9.190;2023-11-25T08:43:38;5.28;;;1.42;;
24631;SDS011;59977;48.782;9.190;2023-11-25T08:46:11;6.13;;;1.73;;
24631;SDS011;59977;48.782;9.190;2023-11-25T08:48:37;6.68;;;1.50;;
24631;SDS011;59977;48.782;9.190;2023-11-25T08:51:03;11.18;;;1.70;;
24631;SDS011;59977;48.782;9.190;2023-11-25T08:53:30;9.55;;;1.70;;
24631;SDS011;59977;48.782;9.190;2023-11-25T08:55:59;5.97;;;1.50;;
24631;SDS011;59977;48.782;9.190;2023-11-25T08:58:27;8.65;;;2.22;;
24631;SDS011;59977;48.782;9.190;2023-11-25T09:00:54;9.82;;;2.40;;
24631;SDS011;59977;48.782;9.190;2023-11-25T09:03:20;4.82;;;1.52;;
24631;SDS011;59977;48.782;9.190;2023-11-25T09:05:48;8.05;;;1.58;;
24631;SDS011;59977;48.782;9.190;2023-11-25T09:08:14;9.77;;;2.00;;
24631;SDS011;59977;48.782;9.190;2023-11-25T09:10:40;10.95;;;1.65;;
24631;SDS011;59977;48.782;9.190;2023-11-25T09:13:06;13.10;;;1.90;;
24631;SDS011;59977;48.782;9.190;2023-11-25T09:15:31;15.07;;;2.55;;
24631;SDS011;59977;48.782;9.190;2023-11-25T09:17:58;21.08;;;2.20;;
24631;SDS011;59977;48.782;9.190;2023-11-25T09:20:24;11.82;;;2.35;;
24631;SDS011;59977;48.782;9.190;2023-11-25T09:22:50;15.15;;;2.22;;
24631;SDS011;59977;48.782;9.190;2023-11-25T09:25:16;16.42;;;2.33;;
24631;SDS011;59977;48.782;9.190;2023-11-25T09:27:42;13.85;;;2.42;;
24631;SDS011;59977;48.782;9.190;2023-11-25T09:30:09;15.07;;;2.65;;
24631;SDS011;59977;48.782;9.190;2023-11-25T09:32:42;18.90;;;2.33;;
24631;SDS011;59977;48.782;9.190;2023-11-25T09:35:11;19.50;;;2.60;;
24631;SDS011;59977;48.782;9.190;2023-11-25T09:37:38;11.77;;;2.28;;
24631;SDS011;59977;48.782;9.190;2023-11-25T09:40:05;18.85;;;2.55;;
24631;SDS011;59977;48.782;9.190;2023-11-25T09:42:32;14.23;;;2.40;;
24631;SDS011;59977;48.782;9.190;2023-11-25T09:44:59;17.60;;;2.58;;
24631;SDS011;59977;48.782;9.190;2023-11-25T09:47:26;13.93;;;2.35;;
24631;SDS011;59977;48.782;9.190;2023-11-25T09:49:52;16.63;;;2.47;;
24631;SDS011;59977;48.782;9.190;2023-11-25T09:52:19;12.55;;;2.53;;
24631;SDS011;59977;48.782;9.190;2023-11-25T09:54:45;17.27;;;2.63;;
24631;SDS011;59977;48.782;9.190;2023-11-25T09:57:16;16.13;;;2.45;;
24631;SDS011;59977;48.782;9.190;2023-11-25T09:59:46;14.40;;;2.83;;
24631;SDS011;59977;48.782;9.190;2023-11-25T10:02:11;16.23;;;2.78;;
24631;SDS011;59977;48.782;9.190;2023-11-25T10:04:41;8.45;;;2.20;;
24631;SDS011;59977;48.782;9.190;2023-11-25T10:07:08;21.15;;;3.30;;
24631;SDS011;59977;48.782;9.190;2023-11-25T10:09:38;22.48;;;2.47;;
24631;SDS011;59977;48.782;9.190;2023-11-25T10:12:07;11.98;;;2.60;;
24631;SDS011;59977;48.782;9.190;2023-11-25T10:14:38;23.15;;;3.90;;
24631;SDS011;59977;48.782;9.190;2023-11-25T10:17:20;12.88;;;2.53;;
24631;SDS011;59977;48.782;9.190;2023-11-25T10:19:47;14.38;;;2.45;;
24631;SDS011;59977;48.782;9.190;2023-11-25T10:22:13;14.80;;;2.67;;
24631;SDS011;59977;48.782;9.190;2023-11-25T10:24:43;15.70;;;2.78;;
24631;SDS011;59977;48.782;9.190;2023-11-25T10:27:15;14.80;;;2.80;;
24631;SDS011;59977;48.782;9.190;2023-11-25T10:29:42;20.08;;;3.20;;
24631;SDS011;59977;48.782;9.190;2023-11-25T10:32:08;24.15;;;3.10;;
24631;SDS011;59977;48.782;9.190;2023-11-25T10:34:37;18.92;;;3.03;;
24631;SDS011;59977;48.782;9.190;2023-11-25T10:37:03;23.52;;;3.38;;
24631;SDS011;59977;48.782;9.190;2023-11-25T10:39:32;26.75;;;3.53;;
24631;SDS011;59977;48.782;9.190;2023-11-25T10:42:02;19.38;;;2.97;;
24631;SDS011;59977;48.782;9.190;2023-11-25T10:44:32;20.27;;;3.37;;
24631;SDS011;59977;48.782;9.190;2023-11-25T10:47:08;16.30;;;2.78;;
24631;SDS011;59977;48.782;9.190;2023-11-25T10:49:52;14.55;;;2.95;;
24631;SDS011;59977;48.782;9.190;2023-11-25T10:52:21;19.67;;;2.92;;
24631;SDS011;59977;48.782;9.190;2023-11-25T10:54:47;13.70;;;2.60;;
24631;SDS011;59977;48.782;9.190;2023-11-25T10:57:15;23.98;;;3.60;;
24631;SDS011;59977;48.782;9.190;2023-11-25T10:59:43;19.60;;;2.85;;
24631;SDS011;59977;48.782;9.190;2023-11-25T11:02:13;14.40;;;2.72;;
24631;SDS011;59977;48.782;9.190;2023-11-25T11:04:58;17.60;;;3.42;;
24631;SDS011;59977;48.782;9.190;2023-11-25T11:07:27;19.38;;;2.78;;
24631;SDS011;59977;48.782;9.190;2023-11-25T11:09:56;15.75;;;2.63;;
24631;SDS011;59977;48.782;9.190;2023-11-25T11:12:33;10.65;;;2.33;;
24631;SDS011;59977;48.782;9.190;2023-11-25T11:15:09;17.58;;;2.80;;
24631;SDS011;59977;48.782;9.190;2023-11-25T11:17:44;19.35;;;3.00;;
24631;SDS011;59977;48.782;9.190;2023-11-25T11:20:23;12.63;;;2.22;;
24631;SDS011;59977;48.782;9.190;2023-11-25T11:22:52;20.52;;;3.05;;
24631;SDS011;59977;48.782;9.190;2023-11-25T11:25:20;13.02;;;2.60;;
24631;SDS011;59977;48.782;9.190;2023-11-25T11:33:51;19.60;;;3.20;;
24631;SDS011;59977;48.782;9.190;2023-11-25T11:36:20;17.13;;;2.63;;
24631;SDS011;59977;48.782;9.190;2023-11-25T11:38:46;16.60;;;2.90;;
24631;SDS011;59977;48.782;9.190;2023-11-25T11:43:40;16.23;;;2.60;;
24631;SDS011;59977;48.782;9.190;2023-11-25T11:46:06;19.33;;;3.38;;
24631;SDS011;59977;48.782;9.190;2023-11-25T11:48:33;13.27;;;2.30;;
24631;SDS011;59977;48.782;9.190;2023-11-25T11:50:58;17.90;;;2.38;;
24631;SDS011;59977;48.782;9.190;2023-11-25T11:53:24;11.93;;;2.28;;
24631;SDS011;59977;48.782;9.190;2023-11-25T11:58:18;9.32;;;1.98;;
24631;SDS011;59977;48.782;9.190;2023-11-25T12:03:27;10.50;;;2.08;;
24631;SDS011;59977;48.782;9.190;2023-11-25T12:05:54;10.80;;;2.15;;
24631;SDS011;59977;48.782;9.190;2023-11-25T12:08:21;7.95;;;1.80;;
24631;SDS011;59977;48.782;9.190;2023-11-25T12:10:47;12.65;;;2.10;;
24631;SDS011;59977;48.782;9.190;2023-11-25T12:13:29;10.18;;;1.60;;
24631;SDS011;59977;48.782;9.190;2023-11-25T12:16:01;11.45;;;2.00;;
24631;SDS011;59977;48.782;9.190;2023-11-25T12:18:32;12.75;;;1.83;;
24631;SDS011;59977;48.782;9.190;2023-11-25T12:20:58;6.70;;;2.00;;
24631;SDS011;59977;48.782;9.190;2023-11-25T12:23:26;10.48;;;2.25;;
24631;SDS011;59977;48.782;9.190;2023-11-25T12:25:54;8.75;;;1.65;;
24631;SDS011;59977;48.782;9.190;2023-11-25T12:28:21;9.32;;;2.00;;
24631;SDS011;59977;48.782;9.190;2023-11-25T12:30:48;7.68;;;1.42;;
24631;SDS011;59977;48.782;9.190;2023-11-25T12:33:18;9.65;;;1.95;;
24631;SDS011;59977;48.782;9.190;2023-11-25T12:35:44;7.53;;;2.08;;
24631;SDS011;59977;48.782;9.190;2023-11-25T12:38:16;8.77;;;1.80;;
24631;SDS011;59977;48.782;9.190;2023-11-25T12:40:42;9.10;;;1.52;;
24631;SDS011;59977;48.782;9.190;2023-11-25T12:43:11;9.10;;;1.40;;
24631;SDS011;59977;48.782;9.190;2023-11-25T12:48:06;8.40;;;1.65;;
24631;SDS011;59977;48.782;9.190;2023-11-25T12:50:34;9.55;;;1.75;;
24631;SDS011;59977;48.782;9.190;2023-11-25T12:53:20;9.25;;;1.40;;
24631;SDS011;59977;48.782;9.190;2023-11-25T12:55:46;7.50;;;1.85;;
24631;SDS011;59977;48.782;9.190;2023-11-25T12:58:15;6.20;;;1.67;;
24631;SDS011;59977;48.782;9.190;2023-11-25T13:00:46;3.03;;;1.40;;
24631;SDS011;59977;48.782;9.190;2023-11-25T13:05:56;5.22;;;1.40;;
24631;SDS011;59977;48.782;9.190;2023-11-25T13:08:35;10.07;;;1.50;;
24631;SDS011;59977;48.782;9.190;2023-11-25T13:11:06;8.13;;;1.73;;
24631;SDS011;59977;48.782;9.190;2023-11-25T13:13:36;5.67;;;1.60;;
24631;SDS011;59977;48.782;9.190;2023-11-25T13:16:05;5.03;;;1.30;;
24631;SDS011;59977;48.782;9.190;2023-11-25T13:18:34;8.63;;;1.58;;
24631;SDS011;59977;48.782;9.190;2023-11-25T13:20:59;10.80;;;1.85;;
24631;SDS011;59977;48.782;9.190;2023-11-25T13:23:29;11.32;;;1.85;;
24631;SDS011;59977;48.782;9.190;2023-11-25T13:25:55;8.20;;;2.13;;
24631;SDS011;59977;48.782;9.190;2023-11-25T13:28:22;13.13;;;3.03;;
24631;SDS011;59977;48.782;9.190;2023-11-25T13:30:48;11.27;;;2.42;;
24631;SDS011;59977;48.782;9.190;2023-11-25T13:33:13;12.55;;;2.38;;
24631;SDS011;59977;48.782;9.190;2023-11-25T13:35:41;6.75;;;1.75;;
24631;SDS011;59977;48.782;9.190;2023-11-25T13:38:08;9.02;;;1.95;;
24631;SDS011;59977;48.782;9.190;2023-11-25T13:40:35;5.90;;;1.40;;
24631;SDS011;59977;48.782;9.190;2023-11-25T13:43:05;9.80;;;1.90;;
24631;SDS011;59977;48.782;9.190;2023-11-25T13:45:31;6.47;;;1.75;;
24631;SDS011;59977;48.782;9.190;2023-11-25T13:47:58;8.73;;;1.90;;
24631;SDS011;59977;48.782;9.190;2023-11-25T13:50:25;3.00;;;1.15;;
24631;SDS011;59977;48.782;9.190;2023-11-25T13:52:52;5.30;;;1.90;;
24631;SDS011;59977;48.782;9.190;2023-11-25T13:55:18;6.20;;;1.65;;
24631;SDS011;59977;48.782;9.190;2023-11-25T13:57:46;8.30;;;1.67;;
24631;SDS011;59977;48.782;9.190;2023-11-25T14:00:15;6.88;;;1.20;;
24631;SDS011;59977;48.782;9.190;2023-11-25T14:02:44;5.75;;;1.48;;
24631;SDS011;59977;48.782;9.190;2023-11-25T14:05:14;4.05;;;1.45;;
24631;SDS011;59977;48.782;9.190;2023-11-25T14:07:40;10.50;;;1.52;;
24631;SDS011;59977;48.782;9.190;2023-11-25T14:10:09;7.93;;;1.63;;
24631;SDS011;59977;48.782;9.190;2023-11-25T14:12:36;8.05;;;1.60;;
24631;SDS011;59977;48.782;9.190;2023-11-25T14:15:03;10.13;;;2.25;;
24631;SDS011;59977;48.782;9.190;2023-11-25T14:17:29;4.60;;;1.63;;
24631;SDS011;59977;48.782;9.190;2023-11-25T14:19:56;3.22;;;1.38;;
24631;SDS011;59977;48.782;9.190;2023-11-25T14:22:21;4.55;;;1.50;;
24631;SDS011;59977;48.782;9.190;2023-11-25T14:24:48;6.40;;;1.67;;
24631;SDS011;59977;48.782;9.190;2023-11-25T14:27:16;6.28;;;1.50;;
24631;SDS011;59977;48.782;9.190;2023-11-25T14:29:43;4.47;;;1.13;;
24631;SDS011;59977;48.782;9.190;2023-11-25T14:32:10;7.28;;;1.60;;
24631;SDS011;59977;48.782;9.190;2023-11-25T14:34:36;6.15;;;1.88;;
24631;SDS011;59977;48.782;9.190;2023-11-25T14:37:02;7.15;;;1.92;;
24631;SDS011;59977;48.782;9.190;2023-11-25T14:39:30;7.22;;;1.75;;
24631;SDS011;59977;48.782;9.190;2023-11-25T14:41:59;6.50;;;1.85;;
24631;SDS011;59977;48.782;9.190;2023-11-25T14:44:25;6.10;;;1.63;;
24631;SDS011;59977;48.782;9.190;2023-11-25T14:46:52;6.68;;;2.08;;
24631;SDS011;59977;48.782;9.190;2023-11-25T14:49:18;8.35;;;1.85;;
24631;SDS011;59977;48.782;9.190;2023-11-25T14:51:43;5.97;;;1.50;;
24631;SDS011;59977;48.782;9.190;2023-11-25T14:54:09;7.47;;;1.80;;
24631;SDS011;59977;48.782;9.190;2023-11-25T14:56:34;6.35;;;1.58;;
24631;SDS011;59977;48.782;9.190;2023-11-25T14:59:01;5.75;;;1.67;;
24631;SDS011;59977;48.782;9.190;2023-11-25T15:01:30;6.38;;;1.60;;